Time;durP1;ratioP1;P1;durP2;ratioP2;P2;SDS_P1;SDS_P2;PMS_P1;PMS_P2;Temp;Humidity;BMP_temperature;BMP_pressure;BME280_temperature;BME280_humidity;BME280_pressure;Samples;Min_cycle;Max_cycle;Signal;HPM_P1;HPM_P2
2020/12/04 00:00:11;;;;;;;29.20;20.67;;;;;;;-2.77;85.93;93821.13;1057506;27;20148;-78
2020/12/04 00:00:42;;;;;;;31.60;21.15;;;;;;;-2.81;86.30;93831.16;1061632;27;20023;-79
2020/12/04 00:01:12;;;;;;;33.33;22.10;;;;;;;-2.79;87.26;93823.94;1061580;27;20491;-79
2020/12/04 00:01:43;;;;;;;30.67;20.88;;;;;;;-2.78;86.78;93822.13;1061314;27;20091;-78
2020/12/04 00:02:13;;;;;;;31.67;21.17;;;;;;;-2.84;86.29;93834.19;1053165;28;20020;-77
2020/12/04 00:02:44;;;;;;;31.63;20.38;;;;;;;-2.87;85.40;93832.00;1053142;28;20023;-78
2020/12/04 00:03:14;;;;;;;28.33;20.05;;;;;;;-2.83;85.30;93832.38;1053110;28;20027;-78
2020/12/04 00:03:44;;;;;;;29.48;21.73;;;;;;;-2.82;85.97;93828.78;1048960;28;20024;-78
2020/12/04 00:04:15;;;;;;;30.70;20.77;;;;;;;-2.91;85.47;93820.53;1053152;28;20024;-78
2020/12/04 00:04:45;;;;;;;34.47;21.73;;;;;;;-2.91;85.86;93830.09;1048947;28;20021;-78
2020/12/04 00:05:16;;;;;;;32.83;20.98;;;;;;;-2.84;85.55;93823.00;1044875;28;20362;-78
2020/12/04 00:05:46;;;;;;;28.70;20.63;;;;;;;-2.90;85.98;93819.50;1048922;28;20016;-78
2020/12/04 00:06:16;;;;;;;31.05;21.70;;;;;;;-2.97;85.77;93832.53;1048901;28;20028;-78
2020/12/04 00:06:47;;;;;;;31.35;21.35;;;;;;;-2.95;85.63;93822.78;1048937;28;20031;-78
2020/12/04 00:07:17;;;;;;;30.98;21.05;;;;;;;-2.96;86.44;93823.78;1053057;28;20028;-78
2020/12/04 00:07:48;;;;;;;34.00;23.17;;;;;;;-2.92;85.99;93823.34;1052689;28;20016;-79
2020/12/04 00:08:18;;;;;;;31.25;20.85;;;;;;;-2.88;87.27;93819.28;1044800;28;20025;-75
2020/12/04 00:08:48;;;;;;;30.63;21.10;;;;;;;-2.84;87.17;93825.59;1048871;28;20047;-75
2020/12/04 00:09:19;;;;;;;31.02;22.02;;;;;;;-2.81;86.35;93814.81;1044676;28;20398;-76
2020/12/04 00:09:49;;;;;;;35.60;21.38;;;;;;;-2.78;86.56;93820.31;1044708;28;20072;-76
2020/12/04 00:10:20;;;;;;;31.13;21.25;;;;;;;-2.74;86.37;93824.03;1048894;28;20027;-75
2020/12/04 00:10:50;;;;;;;29.13;20.17;;;;;;;-2.78;85.37;93815.16;1048927;28;20031;-75
2020/12/04 00:11:20;;;;;;;30.40;20.40;;;;;;;-2.75;85.89;93819.09;1049239;28;20019;-75
2020/12/04 00:11:51;;;;;;;28.27;20.38;;;;;;;-2.74;85.02;93812.88;1049177;28;20032;-76
2020/12/04 00:12:21;;;;;;;31.75;22.33;;;;;;;-2.82;85.76;93818.41;1048896;28;20020;-76
2020/12/04 00:12:52;;;;;;;32.53;21.33;;;;;;;-2.69;86.75;93818.22;1048874;28;20126;-76
2020/12/04 00:13:22;;;;;;;31.58;20.95;;;;;;;-2.71;85.90;93810.66;1048748;28;20033;-76
2020/12/04 00:13:53;;;;;;;30.02;20.75;;;;;;;-2.73;85.86;93828.22;1048879;28;20025;-76
2020/12/04 00:14:23;;;;;;;29.17;20.20;;;;;;;-2.74;85.97;93818.06;1044754;28;20033;-78
2020/12/04 00:14:53;;;;;;;30.42;21.55;;;;;;;-2.73;86.10;93827.44;1040635;28;20146;-77
2020/12/04 00:15:24;;;;;;;30.13;21.27;;;;;;;-2.80;86.40;93822.34;1040552;28;20058;-77
2020/12/04 00:15:54;;;;;;;26.90;19.95;;;;;;;-2.78;86.07;93822.13;1040625;28;20062;-78
2020/12/04 00:16:25;;;;;;;34.22;22.25;;;;;;;-2.73;87.21;93823.03;1045962;28;20037;-77
2020/12/04 00:16:55;;;;;;;31.65;21.38;;;;;;;-2.72;86.74;93822.06;1053240;28;20024;-77
2020/12/04 00:17:25;;;;;;;31.98;21.85;;;;;;;-2.72;86.44;93823.84;1053333;28;20032;-78
2020/12/04 00:17:56;;;;;;;31.30;21.58;;;;;;;-2.72;86.55;93823.84;1053274;28;20461;-78
2020/12/04 00:18:27;;;;;;;32.67;22.25;;;;;;;-2.67;87.04;93819.56;1053356;28;20028;-77
2020/12/04 00:18:57;;;;;;;31.92;21.83;;;;;;;-2.73;86.41;93817.06;1053013;28;20045;-76
2020/12/04 00:19:27;;;;;;;28.55;21.13;;;;;;;-2.69;86.53;93819.00;1053069;28;20024;-76
2020/12/04 00:19:58;;;;;;;31.35;21.85;;;;;;;-2.66;87.16;93817.75;1048728;28;20021;-76
2020/12/04 00:20:28;;;;;;;33.00;21.83;;;;;;;-2.61;87.15;93819.69;1048917;28;20043;-75
2020/12/04 00:20:59;;;;;;;31.20;22.27;;;;;;;-2.57;86.74;93821.63;1053122;28;20020;-75
2020/12/04 00:21:29;;;;;;;26.95;19.52;;;;;;;-2.58;84.66;93817.44;1053101;28;20020;-76
2020/12/04 00:22:00;;;;;;;29.83;20.95;;;;;;;-2.65;85.65;93811.56;1053384;28;20016;-76
2020/12/04 00:22:30;;;;;;;29.02;20.20;;;;;;;-2.58;86.79;93804.47;1052974;28;20016;-76
2020/12/04 00:23:00;;;;;;;29.08;20.50;;;;;;;-2.60;85.58;93811.69;1053104;28;20122;-76
2020/12/04 00:23:31;;;;;;;30.58;20.65;;;;;;;-2.62;85.69;93810.31;1057191;28;20038;-76
2020/12/04 00:24:01;;;;;;;29.80;20.90;;;;;;;-2.57;86.06;93811.25;1057333;28;20024;-76
2020/12/04 00:24:32;;;;;;;31.98;22.15;;;;;;;-2.67;85.96;93805.81;1057143;28;20043;-76
2020/12/04 00:25:02;;;;;;;32.25;21.05;;;;;;;-2.57;87.17;93806.06;1048757;28;20032;-76
2020/12/04 00:25:33;;;;;;;31.40;21.80;;;;;;;-2.62;86.25;93802.53;1040558;28;20390;-76
2020/12/04 00:26:03;;;;;;;30.42;20.23;;;;;;;-2.66;85.82;93797.81;1037236;28;20025;-76
2020/12/04 00:26:37;;;;;;;29.60;20.05;;;;;;;-2.59;85.31;93800.31;1036349;28;20029;-76
2020/12/04 00:27:07;;;;;;;32.72;20.83;;;;;;;-2.67;85.44;93800.63;1044653;28;20072;-75
2020/12/04 00:27:37;;;;;;;30.48;21.58;;;;;;;-2.65;85.37;93793.41;1045197;28;20402;-75
2020/12/04 00:28:08;;;;;;;31.35;22.27;;;;;;;-2.73;86.04;93793.72;1048748;28;20473;-75
2020/12/04 00:28:38;;;;;;;29.83;20.48;;;;;;;-2.64;86.17;93792.38;1048731;28;20016;-75
2020/12/04 00:29:09;;;;;;;29.92;21.10;;;;;;;-2.68;85.83;93799.03;1044568;28;20012;-75
2020/12/04 00:29:39;;;;;;;28.58;20.58;;;;;;;-2.66;86.66;93797.00;1040637;28;20021;-75
2020/12/04 00:30:10;;;;;;;30.80;21.10;;;;;;;-2.70;85.67;93798.47;1040642;28;20410;-75
2020/12/04 00:30:40;;;;;;;30.35;19.98;;;;;;;-2.69;86.05;93793.06;1044742;28;20040;-75
2020/12/04 00:31:10;;;;;;;30.70;21.83;;;;;;;-2.72;86.05;93787.56;1048789;28;20025;-75
2020/12/04 00:31:41;;;;;;;29.67;20.60;;;;;;;-2.63;85.74;93795.78;1049189;28;20028;-75
2020/12/04 00:32:11;;;;;;;30.55;21.45;;;;;;;-2.64;86.14;93789.81;1049185;28;20028;-75
2020/12/04 00:32:42;;;;;;;30.60;20.13;;;;;;;-2.65;85.83;93788.22;1049164;28;20436;-75
2020/12/04 00:33:12;;;;;;;31.35;21.70;;;;;;;-2.65;84.80;93786.41;1048887;28;20044;-75
2020/12/04 00:33:43;;;;;;;34.63;22.38;;;;;;;-2.66;86.00;93787.44;1048875;28;20028;-75
2020/12/04 00:34:13;;;;;;;28.88;20.73;;;;;;;-2.71;87.15;93783.94;1048860;28;20056;-76
2020/12/04 00:34:44;;;;;;;28.13;20.98;;;;;;;-2.63;87.22;93785.41;1053039;28;20016;-76
2020/12/04 00:35:14;;;;;;;31.98;21.08;;;;;;;-2.61;85.44;93786.75;1053017;28;20016;-76
2020/12/04 00:35:44;;;;;;;31.30;21.63;;;;;;;-2.65;85.78;93783.81;1048794;28;20024;-76
2020/12/04 00:36:15;;;;;;;31.33;21.92;;;;;;;-2.69;85.63;93774.91;1048763;28;20028;-76
2020/12/04 00:36:46;;;;;;;31.42;20.80;;;;;;;-2.72;85.35;93779.78;1036571;28;20029;-76
2020/12/04 00:37:16;;;;;;;30.17;20.15;;;;;;;-2.77;85.84;93785.59;1040656;28;20025;-76
2020/12/04 00:37:46;;;;;;;33.05;22.23;;;;;;;-2.73;87.40;93772.97;1040628;28;20375;-76
2020/12/04 00:38:17;;;;;;;29.65;20.35;;;;;;;-2.76;86.11;93779.41;1040833;28;20075;-76
2020/12/04 00:38:47;;;;;;;30.23;21.42;;;;;;;-2.77;85.69;93774.44;1048841;28;20427;-76
2020/12/04 00:39:18;;;;;;;28.00;20.88;;;;;;;-2.77;86.28;93769.25;1048841;28;20443;-76
2020/12/04 00:39:48;;;;;;;32.00;22.05;;;;;;;-2.74;86.82;93774.78;1049165;28;20017;-76
2020/12/04 00:40:19;;;;;;;29.90;21.17;;;;;;;-2.66;87.22;93768.50;1044611;28;20025;-76
2020/12/04 00:40:49;;;;;;;28.30;20.65;;;;;;;-2.74;85.77;93766.22;1044683;28;20033;-75
2020/12/04 00:41:19;;;;;;;30.20;20.75;;;;;;;-2.59;87.63;93763.22;1044746;28;20039;-76
2020/12/04 00:41:50;;;;;;;31.35;21.08;;;;;;;-2.65;87.43;93768.25;1044751;28;20075;-76
2020/12/04 00:42:20;;;;;;;31.80;21.48;;;;;;;-2.65;86.62;93762.28;1049149;28;20081;-76
2020/12/04 00:42:51;;;;;;;28.88;20.30;;;;;;;-2.65;86.00;93757.09;1048797;28;20432;-76
2020/12/04 00:43:21;;;;;;;31.13;21.48;;;;;;;-2.68;85.34;93752.38;1048864;28;20039;-76
2020/12/04 00:43:52;;;;;;;27.02;19.80;;;;;;;-2.61;86.76;93758.22;1048820;28;20021;-76
2020/12/04 00:44:22;;;;;;;28.55;20.48;;;;;;;-2.60;85.75;93759.84;1048855;28;20070;-76
2020/12/04 00:44:53;;;;;;;33.38;21.65;;;;;;;-2.65;85.63;93757.88;1048725;28;20028;-77
2020/12/04 00:45:24;;;;;;;32.15;21.40;;;;;;;-2.60;85.11;93753.84;1048708;28;20020;-76
2020/12/04 00:45:54;;;;;;;28.63;20.50;;;;;;;-2.70;85.41;93749.22;1048761;28;20021;-76
2020/12/04 00:46:25;;;;;;;31.42;21.75;;;;;;;-2.73;86.10;93755.63;1048781;28;20031;-76
2020/12/04 00:46:58;;;;;;;26.83;19.70;;;;;;;-2.66;85.44;93764.09;1049019;28;20021;-75
2020/12/04 00:47:29;;;;;;;30.50;21.52;;;;;;;-2.67;85.94;93759.13;1049110;28;20021;-75
2020/12/04 00:47:59;;;;;;;32.17;20.95;;;;;;;-2.65;86.75;93762.28;1049078;28;20021;-75
2020/12/04 00:48:29;;;;;;;32.63;22.17;;;;;;;-2.69;85.70;93756.78;1049084;28;20043;-76
2020/12/04 00:49:00;;;;;;;31.30;21.00;;;;;;;-2.63;86.31;93759.47;1049061;28;20012;-76
2020/12/04 00:49:30;;;;;;;31.85;21.88;;;;;;;-2.59;86.04;93751.03;1048789;28;20319;-76
2020/12/04 00:50:01;;;;;;;31.35;21.90;;;;;;;-2.61;85.00;93750.44;1048817;28;20465;-76
2020/12/04 00:50:31;;;;;;;29.58;21.50;;;;;;;-2.58;85.42;93747.44;1048785;28;20028;-76
2020/12/04 00:51:01;;;;;;;29.48;20.88;;;;;;;-2.70;84.80;93751.81;1048760;28;20012;-76
2020/12/04 00:51:32;;;;;;;30.50;20.55;;;;;;;-2.72;85.68;93757.22;1048071;28;20043;-76
2020/12/04 00:52:02;;;;;;;33.25;20.98;;;;;;;-2.68;86.10;93753.16;1048777;28;20038;-76
2020/12/04 00:52:33;;;;;;;28.60;20.70;;;;;;;-2.62;85.61;93748.88;1048798;28;20036;-75
2020/12/04 00:53:07;;;;;;;30.00;21.27;;;;;;;-2.62;85.27;93750.66;1048817;28;20040;-75
2020/12/04 00:53:38;;;;;;;28.30;19.52;;;;;;;-2.65;85.71;93741.53;1049115;28;20020;-76
2020/12/04 00:54:08;;;;;;;33.63;22.25;;;;;;;-2.79;86.64;93743.56;1049079;28;20031;-76
2020/12/04 00:54:39;;;;;;;32.97;21.38;;;;;;;-2.70;87.23;93744.03;1049149;28;20016;-76
2020/12/04 00:55:09;;;;;;;31.58;21.25;;;;;;;-2.70;86.78;93744.03;1048999;28;20025;-76
2020/12/04 00:55:39;;;;;;;33.10;22.40;;;;;;;-2.71;86.86;93748.44;1048935;28;20070;-76
2020/12/04 00:56:10;;;;;;;30.60;21.13;;;;;;;-2.67;85.85;93744.38;1048811;28;20070;-75
2020/12/04 00:56:40;;;;;;;30.95;21.80;;;;;;;-2.67;85.51;93738.38;1048788;28;20086;-75
2020/12/04 00:57:11;;;;;;;32.25;20.75;;;;;;;-2.63;86.66;93736.91;1048808;28;20444;-75
2020/12/04 00:57:41;;;;;;;33.85;20.65;;;;;;;-2.61;86.71;93745.25;1048766;28;20516;-75
2020/12/04 00:58:11;;;;;;;29.58;21.50;;;;;;;-2.65;86.66;93739.75;1049107;28;20492;-76
2020/12/04 00:58:45;;;;;;;30.00;20.38;;;;;;;-2.61;86.03;93741.88;1049157;28;20080;-75
2020/12/04 00:59:16;;;;;;;28.98;20.92;;;;;;;-2.62;85.62;93741.09;1044509;28;20025;-75
2020/12/04 00:59:46;;;;;;;29.63;20.55;;;;;;;-2.57;86.70;93743.03;1044587;28;20045;-76
2020/12/04 01:00:17;;;;;;;28.85;20.60;;;;;;;-2.59;85.61;93737.28;1044672;28;20021;-76
2020/12/04 01:00:47;;;;;;;31.75;21.17;;;;;;;-2.61;85.36;93723.72;1044788;28;20533;-76
2020/12/04 01:01:17;;;;;;;30.55;21.30;;;;;;;-2.68;85.68;93727.22;1049062;28;20024;-75
2020/12/04 01:01:48;;;;;;;32.30;21.30;;;;;;;-2.60;86.40;93731.31;1048968;28;20020;-75
2020/12/04 01:02:18;;;;;;;30.08;20.65;;;;;;;-2.54;86.70;93729.59;1049082;28;20123;-76
2020/12/04 01:02:49;;;;;;;30.88;21.35;;;;;;;-2.57;85.10;93728.25;1048425;28;20020;-76
2020/12/04 01:03:19;;;;;;;30.02;20.52;;;;;;;-2.61;86.42;93721.13;1048361;28;20028;-76
2020/12/04 01:03:50;;;;;;;30.50;21.42;;;;;;;-2.57;85.32;93738.63;1048747;28;20032;-75
2020/12/04 01:04:20;;;;;;;30.20;21.58;;;;;;;-2.59;85.41;93737.28;1048732;28;20028;-76
2020/12/04 01:04:51;;;;;;;31.30;21.52;;;;;;;-2.52;86.66;93741.31;1049078;28;20031;-76
2020/12/04 01:05:21;;;;;;;36.70;22.63;;;;;;;-2.57;85.79;93735.25;1049117;28;20025;-76
2020/12/04 01:05:51;;;;;;;31.05;21.23;;;;;;;-2.60;85.49;93733.91;1048993;28;20432;-75
2020/12/04 01:06:22;;;;;;;31.17;22.27;;;;;;;-2.65;86.03;93733.75;1048974;28;20481;-76
2020/12/04 01:06:52;;;;;;;29.27;21.30;;;;;;;-2.61;86.54;93729.69;1049061;28;20013;-77
2020/12/04 01:07:23;;;;;;;32.53;22.55;;;;;;;-2.61;86.56;93732.28;1049041;28;20462;-77
2020/12/04 01:07:53;;;;;;;30.58;21.33;;;;;;;-2.59;86.71;93735.47;1048991;28;20040;-77
2020/12/04 01:08:24;;;;;;;28.98;20.88;;;;;;;-2.57;86.27;93738.63;1049045;28;20015;-76
2020/12/04 01:08:54;;;;;;;27.65;19.60;;;;;;;-2.57;86.76;93738.63;1049049;28;20071;-77
2020/12/04 01:09:24;;;;;;;28.73;21.23;;;;;;;-2.68;85.73;93740.19;1049011;28;20013;-77
2020/12/04 01:09:55;;;;;;;30.73;21.98;;;;;;;-2.76;86.04;93740.50;1049025;28;20021;-77
2020/12/04 01:10:25;;;;;;;32.53;21.60;;;;;;;-2.67;87.53;93735.78;1049000;28;20020;-76
2020/12/04 01:10:56;;;;;;;31.30;21.90;;;;;;;-2.66;87.58;93734.78;1048991;28;20016;-77
2020/12/04 01:11:30;;;;;;;28.98;19.95;;;;;;;-2.66;85.92;93740.75;1049005;28;20028;-77
2020/12/04 01:12:01;;;;;;;35.05;23.05;;;;;;;-2.73;85.82;93745.25;1044555;28;20013;-77
2020/12/04 01:12:31;;;;;;;32.28;21.30;;;;;;;-2.74;86.11;93741.06;1044593;28;20108;-77
2020/12/04 01:13:05;;;;;;;34.38;21.52;;;;;;;-2.78;86.81;93741.75;1040439;28;20446;-77
2020/12/04 01:13:36;;;;;;;31.35;20.95;;;;;;;-2.75;87.14;93743.91;1042019;28;20050;-76
2020/12/04 01:14:06;;;;;;;31.00;22.20;;;;;;;-2.65;88.10;93741.53;1048709;28;20032;-76
2020/12/04 01:14:36;;;;;;;31.98;21.88;;;;;;;-2.61;86.55;93742.66;1048735;28;20085;-76
2020/12/04 01:15:07;;;;;;;30.90;21.27;;;;;;;-2.69;86.19;93745.63;1049100;28;20070;-76
2020/12/04 01:15:37;;;;;;;32.17;22.02;;;;;;;-2.66;86.89;93742.56;1048978;28;20090;-76
2020/12/04 01:16:09;;;;;;;30.73;21.25;;;;;;;-2.58;85.67;93739.66;1048964;28;20428;-77
2020/12/04 01:16:39;;;;;;;28.08;19.23;;;;;;;-2.57;85.02;93730.06;1048932;28;20064;-78
2020/12/04 01:17:10;;;;;;;31.05;21.15;;;;;;;-2.52;86.88;93730.94;1048963;28;20016;-77
2020/12/04 01:17:40;;;;;;;30.25;22.27;;;;;;;-2.45;87.26;93739.41;1048814;28;20476;-78
2020/12/04 01:18:11;;;;;;;31.02;21.98;;;;;;;-2.50;86.06;93741.88;1049033;28;20020;-78
2020/12/04 01:18:41;;;;;;;30.80;21.27;;;;;;;-2.43;87.01;93737.38;1048968;28;20028;-78
2020/12/04 01:19:11;;;;;;;30.67;20.98;;;;;;;-2.50;86.26;93731.50;1048602;28;20021;-77
2020/12/04 01:19:42;;;;;;;32.10;21.58;;;;;;;-2.47;86.79;93738.06;1048743;28;20025;-78
2020/12/04 01:20:12;;;;;;;27.80;20.58;;;;;;;-2.54;86.09;93732.97;1048683;28;20016;-78
2020/12/04 01:20:43;;;;;;;30.30;21.13;;;;;;;-2.55;85.84;93741.78;1048744;28;20016;-77
2020/12/04 01:21:13;;;;;;;29.77;20.90;;;;;;;-2.53;86.98;93729.38;1048992;28;20377;-77
2020/12/04 01:21:47;;;;;;;28.80;19.30;;;;;;;-2.52;85.93;93736.13;1049006;28;20031;-78
2020/12/04 01:22:17;;;;;;;28.55;20.75;;;;;;;-2.50;86.21;93736.69;1048934;28;20024;-78
2020/12/04 01:22:48;;;;;;;30.25;21.95;;;;;;;-2.51;86.63;93732.53;1048978;28;20424;-78
2020/12/04 01:23:18;;;;;;;35.05;20.10;;;;;;;-2.58;86.37;93729.28;1048909;28;20077;-78
2020/12/04 01:23:52;;;;;;;29.92;21.15;;;;;;;-2.57;86.76;93733.44;1048964;28;20025;-78
2020/12/04 01:24:22;;;;;;;31.88;21.38;;;;;;;-2.58;85.85;93724.09;1048629;28;20535;-78
2020/12/04 01:24:53;;;;;;;31.45;21.00;;;;;;;-2.52;86.69;93730.94;1048700;28;20055;-77
2020/12/04 01:25:23;;;;;;;30.85;20.50;;;;;;;-2.50;86.91;93733.31;1048655;28;20025;-78
2020/12/04 01:25:53;;;;;;;31.02;21.65;;;;;;;-2.50;86.05;93731.50;1048725;28;20025;-78
2020/12/04 01:26:24;;;;;;;30.48;21.35;;;;;;;-2.53;86.14;93734.56;1048870;28;20086;-76
2020/12/04 01:26:54;;;;;;;31.38;21.02;;;;;;;-2.55;86.88;93731.41;1048627;28;20373;-78
2020/12/04 01:27:25;;;;;;;29.00;20.88;;;;;;;-2.58;85.70;93734.47;1048618;28;20027;-78
2020/12/04 01:27:55;;;;;;;32.25;21.38;;;;;;;-2.55;86.61;93726.22;1048676;28;20086;-78
2020/12/04 01:28:25;;;;;;;32.13;21.70;;;;;;;-2.53;87.12;93731.97;1048641;28;20029;-78
2020/12/04 01:28:56;;;;;;;30.33;20.73;;;;;;;-2.55;86.64;93734.00;1048938;28;20037;-78
2020/12/04 01:29:26;;;;;;;31.83;21.67;;;;;;;-2.51;86.80;93731.75;1048935;28;20025;-78
2020/12/04 01:29:57;;;;;;;30.38;21.73;;;;;;;-2.52;86.95;93724.97;1048966;28;20028;-78
2020/12/04 01:30:27;;;;;;;32.83;21.30;;;;;;;-2.44;87.47;93722.84;1048898;28;20426;-78
2020/12/04 01:30:57;;;;;;;27.80;20.90;;;;;;;-2.46;87.28;93727.47;1048992;28;20028;-78
2020/12/04 01:31:28;;;;;;;29.33;20.08;;;;;;;-2.49;87.43;93716.72;1048489;28;20016;-78
2020/12/04 01:31:58;;;;;;;29.75;21.33;;;;;;;-2.40;87.28;93729.13;1048664;28;20024;-78
2020/12/04 01:32:29;;;;;;;30.55;21.92;;;;;;;-2.50;85.95;93723.72;1048630;28;20020;-77
2020/12/04 01:33:00;;;;;;;31.20;21.45;;;;;;;-2.52;86.76;93725.75;1048669;28;20024;-78
2020/12/04 01:33:32;;;;;;;33.63;22.58;;;;;;;-2.57;87.00;93722.28;1048589;28;20047;-77
2020/12/04 01:34:02;;;;;;;30.88;21.42;;;;;;;-2.49;87.69;93724.50;1048716;28;20393;-77
2020/12/04 01:34:33;;;;;;;31.58;20.63;;;;;;;-2.53;86.88;93719.00;1048651;28;20031;-77
2020/12/04 01:35:04;;;;;;;30.80;22.05;;;;;;;-2.53;87.36;93726.00;1048977;28;20473;-78
2020/12/04 01:35:34;;;;;;;29.17;20.42;;;;;;;-2.51;86.85;93719.56;1048939;28;20017;-77
2020/12/04 01:36:04;;;;;;;32.67;22.02;;;;;;;-2.50;86.83;93726.31;1048916;28;20420;-78
2020/12/04 01:36:35;;;;;;;31.60;20.60;;;;;;;-2.48;86.51;93724.31;1048884;28;20052;-78
2020/12/04 01:37:05;;;;;;;31.23;21.45;;;;;;;-2.57;85.13;93728.25;1048843;28;20024;-77
2020/12/04 01:37:36;;;;;;;30.60;22.42;;;;;;;-2.54;86.66;93722.59;1048876;28;20032;-77
2020/12/04 01:38:06;;;;;;;30.38;20.73;;;;;;;-2.54;86.98;93711.44;1048958;28;20029;-78
2020/12/04 01:38:36;;;;;;;30.08;21.45;;;;;;;-2.59;86.39;93727.69;1048899;28;20466;-78
2020/12/04 01:39:07;;;;;;;32.20;21.58;;;;;;;-2.57;86.82;93728.25;1048868;28;20491;-78
2020/12/04 01:39:37;;;;;;;30.27;20.98;;;;;;;-2.51;87.11;93722.16;1047937;28;20489;-78
2020/12/04 01:40:08;;;;;;;25.92;19.33;;;;;;;-2.52;87.00;93732.75;1048701;28;20028;-78
2020/12/04 01:40:38;;;;;;;32.70;21.52;;;;;;;-2.58;86.24;93725.88;1044460;28;20025;-78
2020/12/04 01:41:09;;;;;;;33.83;21.20;;;;;;;-2.53;86.89;93719.00;1044563;28;20100;-78
2020/12/04 01:41:39;;;;;;;29.30;20.90;;;;;;;-2.58;86.72;93718.91;1048584;28;20021;-78
2020/12/04 01:42:09;;;;;;;32.28;21.05;;;;;;;-2.67;86.50;93730.63;1048638;28;20033;-78
2020/12/04 01:42:40;;;;;;;31.20;21.45;;;;;;;-2.63;86.88;93723.94;1048847;28;20432;-78
2020/12/04 01:43:10;;;;;;;31.30;21.35;;;;;;;-2.53;87.31;93719.00;1048501;28;20575;-77
2020/12/04 01:43:41;;;;;;;29.92;20.52;;;;;;;-2.54;87.13;93719.22;1048545;28;20077;-77
2020/12/04 01:44:11;;;;;;;33.22;21.58;;;;;;;-2.57;86.92;93717.88;1048516;28;20029;-77
2020/12/04 01:44:41;;;;;;;30.83;22.08;;;;;;;-2.59;86.16;93714.72;1048580;28;20063;-77
2020/12/04 01:45:12;;;;;;;27.00;20.13;;;;;;;-2.57;87.20;93722.28;1048878;28;20492;-77
2020/12/04 01:45:42;;;;;;;33.38;21.27;;;;;;;-2.54;87.22;93721.81;1048854;28;20036;-77
2020/12/04 01:46:13;;;;;;;30.02;20.88;;;;;;;-2.70;86.42;93718.09;1048917;28;20246;-77
2020/12/04 01:46:44;;;;;;;29.65;21.60;;;;;;;-2.60;87.52;93720.16;1048801;28;20028;-78
2020/12/04 01:47:16;;;;;;;29.50;20.48;;;;;;;-2.63;86.61;93716.16;1044454;28;20028;-78
2020/12/04 01:47:47;;;;;;;29.48;20.50;;;;;;;-2.59;86.39;93714.72;1044355;28;20021;-78
2020/12/04 01:48:17;;;;;;;28.85;20.88;;;;;;;-2.67;85.83;93709.88;1044413;28;20525;-78
2020/12/04 01:48:48;;;;;;;34.65;21.83;;;;;;;-2.83;86.98;93716.53;1044864;28;20032;-78
2020/12/04 01:49:18;;;;;;;32.53;21.50;;;;;;;-2.80;87.49;93717.88;1048480;28;20028;-78
2020/12/04 01:49:48;;;;;;;29.75;20.77;;;;;;;-2.73;88.05;93711.53;1048544;28;20024;-76
2020/12/04 01:50:20;;;;;;;32.38;21.40;;;;;;;-2.69;87.49;93714.50;1040196;28;20026;-77
2020/12/04 01:50:51;;;;;;;32.95;21.70;;;;;;;-2.62;88.22;93717.75;1040548;28;20025;-76
2020/12/04 01:51:22;;;;;;;31.00;21.50;;;;;;;-2.62;86.89;93715.16;1044403;28;20497;-77
2020/12/04 01:51:53;;;;;;;33.50;22.15;;;;;;;-2.60;87.26;93707.97;1044678;28;20048;-76
2020/12/04 01:52:25;;;;;;;29.38;21.10;;;;;;;-2.70;86.58;93702.53;1040270;28;20026;-77
2020/12/04 01:52:55;;;;;;;31.35;21.98;;;;;;;-2.73;86.66;93703.75;1040326;28;20057;-77
2020/12/04 01:53:26;;;;;;;30.15;21.92;;;;;;;-2.74;87.24;93701.41;1036132;28;20025;-77
2020/12/04 01:53:56;;;;;;;31.15;21.35;;;;;;;-2.72;87.72;93700.19;1036126;28;20034;-77
2020/12/04 01:54:27;;;;;;;32.15;21.33;;;;;;;-2.68;87.58;93709.06;1032417;28;20077;-77
2020/12/04 01:54:57;;;;;;;31.40;21.67;;;;;;;-2.64;87.77;93701.63;1036407;28;20025;-76
2020/12/04 01:55:28;;;;;;;30.67;21.33;;;;;;;-2.65;88.48;93700.06;1040447;28;20029;-76
2020/12/04 01:55:58;;;;;;;33.25;22.17;;;;;;;-2.61;88.44;93690.81;1044501;28;20159;-77
2020/12/04 01:56:30;;;;;;;31.83;21.05;;;;;;;-2.58;87.80;93702.53;1047939;28;20090;-77
2020/12/04 01:57:01;;;;;;;30.95;21.30;;;;;;;-2.52;87.69;93702.41;1052744;28;20031;-76
2020/12/04 01:57:33;;;;;;;31.23;21.02;;;;;;;-2.59;87.51;93699.16;1048556;28;20542;-77
2020/12/04 01:58:03;;;;;;;31.63;21.65;;;;;;;-2.60;87.71;93695.00;1044946;28;20025;-77
2020/12/04 01:58:34;;;;;;;30.23;21.65;;;;;;;-2.55;86.53;93694.31;1048153;28;20028;-76
2020/12/04 01:59:07;;;;;;;28.67;21.20;;;;;;;-2.60;87.68;93686.44;1044742;28;20029;-76
2020/12/04 01:59:37;;;;;;;29.85;20.75;;;;;;;-2.53;87.98;93690.47;1048520;28;20066;-76
2020/12/04 02:00:08;;;;;;;29.13;20.17;;;;;;;-2.54;87.49;93682.91;1048754;28;20428;-76
2020/12/04 02:00:38;;;;;;;28.35;20.33;;;;;;;-2.55;87.05;93678.75;1048823;28;20055;-77
2020/12/04 02:01:12;;;;;;;29.88;21.02;;;;;;;-2.53;87.52;93680.09;1048787;28;20078;-76
2020/12/04 02:01:43;;;;;;;30.98;21.05;;;;;;;-2.54;86.76;93682.91;1048883;28;20399;-76
2020/12/04 02:02:21;;;;;;;31.05;21.58;;;;;;;-2.59;87.00;93675.81;1048758;28;20062;-76
2020/12/04 02:02:51;;;;;;;31.02;20.90;;;;;;;-2.63;86.48;93679.06;1048850;28;20473;-76
2020/12/04 02:03:22;;;;;;;30.70;20.90;;;;;;;-2.68;85.95;93677.97;1048807;28;20020;-78
2020/12/04 02:03:52;;;;;;;28.98;20.77;;;;;;;-2.70;87.03;93677.41;1048760;28;20020;-78
2020/12/04 02:04:23;;;;;;;31.58;21.70;;;;;;;-2.68;86.92;93674.59;1048733;28;20035;-78
2020/12/04 02:04:53;;;;;;;30.58;21.48;;;;;;;-2.67;87.66;93673.56;1048776;28;20023;-78
2020/12/04 02:05:23;;;;;;;31.30;21.67;;;;;;;-2.67;87.61;93676.16;1048770;28;20326;-78
2020/12/04 02:06:02;;;;;;;30.95;21.23;;;;;;;-2.66;87.28;93678.53;1048720;28;20385;-78
2020/12/04 02:06:53;;;;;;;32.25;20.45;;;;;;;-2.63;86.59;93684.28;1052545;28;20024;-77
2020/12/04 02:07:50;;;;;;;32.08;19.98;;;;;;;-2.69;86.95;93678.97;1052715;28;20607;-78
2020/12/04 02:08:32;;;;;;;34.38;22.05;;;;;;;-2.65;87.86;93676.72;1050472;28;20142;-77
2020/12/04 02:09:05;;;;;;;31.70;21.20;;;;;;;-2.65;87.79;93674.13;1048800;28;20013;-78
2020/12/04 02:09:38;;;;;;;31.73;21.75;;;;;;;-2.75;86.64;93684.25;1056907;28;20034;-77
2020/12/04 02:10:29;;;;;;;33.60;21.90;;;;;;;-2.72;88.17;93674.25;1056787;28;20031;-78
2020/12/04 02:11:21;;;;;;;28.35;19.67;;;;;;;-2.68;87.19;93680.56;1048437;28;20016;-77
2020/12/04 02:11:52;;;;;;;30.15;20.23;;;;;;;-2.69;86.37;93676.38;1044437;28;20466;-77
2020/12/04 02:12:23;;;;;;;33.95;21.85;;;;;;;-2.73;87.20;93672.66;1048354;28;20021;-77
2020/12/04 02:12:54;;;;;;;29.70;20.98;;;;;;;-2.71;86.64;93673.25;1051752;28;20496;-77
2020/12/04 02:13:24;;;;;;;31.98;20.00;;;;;;;-2.72;86.55;93668.28;1044066;28;20040;-77
2020/12/04 02:13:55;;;;;;;30.27;20.73;;;;;;;-2.73;86.27;93671.88;1035887;28;20433;-77
2020/12/04 02:14:25;;;;;;;29.63;20.95;;;;;;;-2.65;87.12;93668.94;1039827;28;20119;-76
2020/12/04 02:14:56;;;;;;;32.65;22.33;;;;;;;-2.57;87.54;93668.59;1039762;28;20025;-76
2020/12/04 02:15:26;;;;;;;31.42;20.40;;;;;;;-2.68;86.98;93664.22;1040022;28;20022;-76
2020/12/04 02:15:56;;;;;;;30.83;21.48;;;;;;;-2.67;87.42;93671.75;1044311;28;20032;-76
2020/12/04 02:16:27;;;;;;;32.90;21.60;;;;;;;-2.66;87.68;93672.53;1036074;28;20048;-76
2020/12/04 02:17:01;;;;;;;31.75;20.90;;;;;;;-2.68;87.38;93666.81;1040248;28;20425;-76
2020/12/04 02:17:33;;;;;;;30.17;21.30;;;;;;;-2.63;87.38;93666.13;1044261;28;20525;-76
2020/12/04 02:18:03;;;;;;;30.17;20.40;;;;;;;-2.54;88.10;93659.56;1045056;28;20017;-76
2020/12/04 02:18:36;;;;;;;29.80;20.77;;;;;;;-2.59;86.40;93662.84;1044906;28;20017;-76
2020/12/04 02:19:07;;;;;;;29.20;20.02;;;;;;;-2.53;87.33;93661.94;1048356;28;20074;-75
2020/12/04 02:19:41;;;;;;;32.13;21.70;;;;;;;-2.56;85.90;93657.22;1048420;28;20066;-76
2020/12/04 02:20:12;;;;;;;31.10;21.17;;;;;;;-2.55;87.36;93653.59;1048498;28;20015;-76
2020/12/04 02:20:43;;;;;;;29.80;20.95;;;;;;;-2.58;86.64;93659.25;1048749;28;20017;-76
2020/12/04 02:21:13;;;;;;;33.97;22.15;;;;;;;-2.65;86.05;93658.56;1048757;28;20481;-77
2020/12/04 02:21:43;;;;;;;30.33;20.30;;;;;;;-2.65;86.59;93656.75;1048778;28;20024;-76
2020/12/04 02:22:14;;;;;;;30.30;21.23;;;;;;;-2.58;87.12;93651.47;1048448;28;20063;-76
2020/12/04 02:22:44;;;;;;;31.23;21.02;;;;;;;-2.62;85.96;93655.50;1044254;28;20032;-77